createdAt,value
2023-08-21T00:00:27.765Z,23.08
2023-08-21T00:05:32.493Z,22.89
2023-08-21T00:10:35.691Z,22.53
2023-08-21T00:15:39.979Z,22.59
2023-08-21T00:20:45.672Z,23.16
2023-08-21T00:25:49.634Z,23.36
2023-08-21T00:30:52.889Z,22.88
2023-08-21T00:35:57.525Z,23.17
2023-08-21T00:41:00.753Z,23.50
2023-08-21T00:46:04.346Z,22.59
2023-08-21T00:51:09.102Z,23.01
2023-08-21T00:56:12.373Z,23.02
2023-08-21T01:01:17.475Z,23.28
2023-08-21T01:06:22.646Z,22.84
2023-08-21T01:11:31.177Z,23.42
2023-08-21T01:16:34.969Z,23.54
2023-08-21T01:21:39.540Z,22.41
2023-08-21T01:26:44.159Z,22.07
2023-08-21T01:31:52.092Z,22.36
2023-08-21T01:36:55.526Z,22.20
2023-08-21T01:42:01.321Z,22.43
2023-08-21T01:47:05.584Z,22.59
2023-08-21T01:52:08.841Z,22.07
2023-08-21T01:57:13.432Z,22.12
2023-08-21T02:02:16.693Z,22.27
2023-08-21T02:07:19.911Z,22.63
2023-08-21T02:12:24.596Z,22.72
2023-08-21T02:17:28.571Z,21.87
2023-08-21T02:22:31.769Z,21.72
2023-08-21T02:27:36.419Z,21.52
2023-08-21T02:32:41.540Z,21.94
2023-08-21T02:37:45.130Z,22.31
2023-08-21T02:42:49.764Z,22.50
2023-08-21T02:47:53.022Z,22.66
2023-08-21T02:52:56.256Z,22.61
2023-08-21T02:58:00.838Z,21.88
2023-08-21T03:03:04.250Z,21.83
2023-08-21T03:08:07.703Z,21.04
2023-08-21T03:13:12.366Z,21.42
2023-08-21T03:18:15.604Z,21.59
2023-08-21T03:23:18.835Z,21.67
2023-08-21T03:28:23.625Z,21.58
2023-08-21T03:33:26.987Z,22.31
2023-08-21T03:38:30.231Z,21.57
2023-08-21T03:43:34.904Z,20.94
2023-08-21T03:48:38.171Z,21.16
2023-08-21T03:53:41.363Z,21.21
2023-08-21T03:58:46.045Z,20.65
2023-08-21T04:03:49.236Z,21.59
2023-08-21T04:08:52.532Z,21.79
2023-08-21T04:13:57.104Z,20.81
2023-08-21T04:19:00.761Z,21.40
2023-08-21T04:24:03.931Z,21.07
2023-08-21T04:29:08.486Z,21.44
2023-08-21T04:34:11.729Z,21.45
2023-08-21T04:39:14.954Z,20.81
2023-08-21T04:44:20.008Z,21.35
2023-08-21T04:49:23.266Z,21.34
2023-08-21T04:54:26.659Z,21.15
2023-08-21T04:59:31.251Z,21.08
2023-08-21T05:04:34.643Z,21.52
2023-08-21T05:09:37.880Z,21.64
2023-08-21T05:14:42.526Z,23.15
2023-08-21T05:19:45.781Z,22.96
2023-08-21T05:24:49.057Z,23.07
2023-08-21T05:29:53.804Z,22.67
2023-08-21T05:34:57.001Z,23.35
2023-08-21T05:40:00.339Z,24.15
2023-08-21T05:45:05.450Z,23.74
2023-08-21T05:50:10.179Z,25.67
2023-08-21T05:55:13.582Z,24.19
2023-08-21T06:00:19.227Z,25.19
2023-08-21T06:05:22.429Z,25.60
2023-08-21T06:10:25.721Z,26.13
2023-08-21T06:15:30.388Z,25.67
2023-08-21T06:20:33.745Z,25.44
2023-08-21T06:25:38.638Z,25.92
2023-08-21T06:30:43.338Z,26.39
2023-08-21T06:35:46.770Z,26.88
2023-08-21T06:40:49.958Z,27.27
2023-08-21T06:45:54.651Z,27.33
2023-08-21T06:50:58.091Z,27.45
2023-08-21T06:56:01.312Z,27.58
2023-08-21T07:01:06.060Z,28.10
2023-08-21T07:06:09.461Z,28.57
2023-08-21T07:11:15.125Z,28.51
2023-08-21T07:16:20.050Z,27.98
2023-08-21T07:21:33.128Z,28.41
2023-08-21T07:26:37.421Z,29.00
2023-08-21T07:31:42.010Z,28.86
2023-08-21T07:36:45.500Z,28.79
2023-08-21T07:41:48.697Z,28.74
2023-08-21T07:46:53.419Z,29.12
2023-08-21T07:51:57.118Z,29.38
2023-08-21T07:57:00.339Z,28.66
2023-08-21T08:02:05.674Z,28.73
2023-08-21T08:07:09.019Z,28.88
2023-08-21T08:12:12.359Z,29.31
2023-08-21T08:17:17.550Z,29.40
2023-08-21T08:22:20.905Z,28.64
2023-08-21T08:27:24.289Z,29.12
2023-08-21T08:32:29.179Z,29.32
2023-08-21T08:37:32.537Z,29.24
2023-08-21T08:42:36.895Z,29.38
2023-08-21T08:47:43.179Z,29.40
2023-08-21T08:52:46.703Z,29.84
2023-08-21T08:57:49.867Z,29.75
2023-08-21T09:02:54.517Z,29.60
2023-08-21T09:08:13.759Z,30.37
2023-08-21T09:13:18.311Z,30.22
2023-08-21T09:18:23.004Z,30.06
2023-08-21T09:23:26.246Z,30.34
2023-08-21T09:28:29.875Z,30.17
2023-08-21T09:33:35.844Z,30.59
2023-08-21T09:38:41.922Z,30.49
2023-08-21T09:43:45.316Z,30.88
2023-08-21T09:48:50.439Z,31.01
2023-08-21T09:53:56.013Z,30.73
2023-08-21T09:58:59.317Z,30.47
2023-08-21T10:04:04.695Z,31.24
2023-08-21T10:09:08.816Z,31.66
2023-08-21T10:14:12.787Z,31.73
2023-08-21T10:19:19.865Z,31.77
2023-08-21T10:24:36.711Z,31.80
2023-08-21T10:29:41.208Z,31.86
2023-08-21T10:34:54.162Z,31.75
2023-08-21T10:39:58.287Z,32.13
2023-08-21T10:45:12.893Z,32.35
2023-08-21T10:50:17.495Z,32.08
2023-08-21T10:55:21.089Z,32.73
2023-08-21T11:00:25.415Z,32.33
2023-08-21T11:05:30.536Z,32.35
2023-08-21T11:10:34.500Z,32.30
2023-08-21T11:15:37.755Z,32.51
2023-08-21T11:20:44.347Z,33.00
2023-08-21T11:25:48.399Z,33.01
2023-08-21T11:30:51.936Z,33.23
2023-08-21T11:35:58.542Z,32.91
2023-08-21T11:41:03.541Z,33.01
2023-08-21T11:46:07.407Z,33.45
2023-08-21T11:51:12.222Z,33.60
2023-08-21T11:56:16.738Z,33.28
2023-08-21T12:01:20.333Z,33.82
2023-08-21T12:06:26.666Z,33.88
2023-08-21T12:11:30.113Z,34.40
2023-08-21T12:16:33.331Z,34.30
2023-08-21T12:21:38.962Z,34.95
2023-08-21T12:26:50.390Z,34.95
2023-08-21T12:31:54.487Z,34.63
2023-08-21T12:36:59.243Z,35.00
2023-08-21T12:42:02.748Z,35.17
2023-08-21T12:47:06.260Z,35.56
2023-08-21T12:52:11.151Z,35.51
2023-08-21T12:57:15.380Z,35.57
2023-08-21T13:02:18.699Z,35.39
2023-08-21T13:07:23.855Z,35.53
2023-08-21T13:12:27.897Z,35.87
2023-08-21T13:17:31.386Z,36.00
2023-08-21T13:22:48.292Z,35.29
2023-08-21T13:27:52.075Z,35.42
2023-08-21T13:32:55.553Z,35.55
2023-08-21T13:38:01.116Z,35.26
2023-08-21T13:43:04.658Z,35.62
2023-08-21T13:48:08.470Z,35.60
2023-08-21T13:53:16.130Z,35.61
2023-08-21T13:58:19.617Z,36.44
2023-08-21T14:03:22.886Z,36.10
2023-08-21T14:08:27.720Z,36.46
2023-08-21T14:13:31.095Z,36.32
2023-08-21T14:18:34.446Z,36.60
2023-08-21T14:23:40.446Z,36.59
2023-08-21T14:28:45.792Z,36.47
2023-08-21T14:33:49.171Z,35.71
2023-08-21T14:38:54.180Z,36.18
2023-08-21T14:43:57.670Z,36.57
2023-08-21T14:49:01.188Z,36.58
2023-08-21T14:54:06.495Z,36.01
2023-08-21T14:59:12.058Z,36.45
2023-08-21T15:04:15.405Z,35.96
2023-08-21T15:09:20.643Z,35.64
2023-08-21T15:14:23.899Z,35.80
2023-08-21T15:19:27.156Z,35.24
2023-08-21T15:24:31.804Z,35.21
2023-08-21T15:29:35.058Z,35.30
2023-08-21T15:34:38.302Z,34.92
2023-08-21T15:39:43.028Z,34.89
2023-08-21T15:44:46.313Z,34.91
2023-08-21T15:49:49.583Z,35.24
2023-08-21T15:54:54.656Z,35.32
2023-08-21T15:59:58.036Z,34.97
2023-08-21T16:05:01.468Z,34.92
2023-08-21T16:10:07.231Z,34.86
2023-08-21T16:15:11.076Z,34.47
2023-08-21T16:20:16.962Z,34.14
2023-08-21T16:25:22.070Z,33.87
2023-08-21T16:30:25.528Z,33.85
2023-08-21T16:35:28.853Z,34.08
2023-08-21T16:40:34.126Z,34.11
2023-08-21T16:45:37.521Z,34.14
2023-08-21T16:50:41.240Z,34.08
2023-08-21T16:55:46.073Z,33.93
2023-08-21T17:00:49.751Z,33.84
2023-08-21T17:05:53.159Z,33.96
2023-08-21T17:10:57.947Z,33.81
2023-08-21T17:16:01.398Z,33.75
2023-08-21T17:21:04.817Z,33.56
2023-08-21T17:26:09.507Z,33.58
2023-08-21T17:31:12.814Z,33.49
2023-08-21T17:36:16.034Z,33.25
2023-08-21T17:41:20.600Z,33.19
2023-08-21T17:46:24.236Z,32.98
2023-08-21T17:51:27.469Z,32.76
2023-08-21T17:56:32.865Z,32.63
2023-08-21T18:01:36.183Z,32.48
2023-08-21T18:06:39.866Z,32.36
2023-08-21T18:11:44.866Z,32.48
2023-08-21T18:16:50.386Z,32.30
2023-08-21T18:21:53.930Z,32.08
2023-08-21T18:26:58.524Z,32.13
2023-08-21T18:32:01.832Z,31.97
2023-08-21T18:37:05.251Z,31.68
2023-08-21T18:42:10.025Z,31.53
2023-08-21T18:47:13.371Z,31.28
2023-08-21T18:52:16.843Z,31.29
2023-08-21T18:57:21.614Z,30.97
2023-08-21T19:02:25.456Z,30.77
2023-08-21T19:07:28.828Z,30.96
2023-08-21T19:12:33.557Z,30.51
2023-08-21T19:17:37.385Z,29.92
2023-08-21T19:22:42.021Z,29.75
2023-08-21T19:27:47.754Z,29.78
2023-08-21T19:32:53.277Z,30.03
2023-08-21T19:37:56.616Z,30.10
2023-08-21T19:43:01.330Z,29.75
2023-08-21T19:48:05.013Z,29.82
2023-08-21T19:53:08.338Z,30.04
2023-08-21T19:58:13.409Z,29.42
2023-08-21T20:03:16.778Z,29.37
2023-08-21T20:08:24.329Z,28.91
2023-08-21T20:13:29.475Z,28.91
2023-08-21T20:18:32.688Z,28.32
2023-08-21T20:23:36.747Z,28.15
2023-08-21T20:28:41.301Z,28.66
2023-08-21T20:33:44.469Z,28.90
2023-08-21T20:38:47.724Z,28.48
2023-08-21T20:43:52.646Z,28.22
2023-08-21T20:48:55.970Z,28.08
2023-08-21T20:53:59.313Z,28.18
2023-08-21T20:59:04.044Z,27.88
2023-08-21T21:04:07.290Z,28.04
2023-08-21T21:09:10.588Z,27.50
2023-08-21T21:14:15.135Z,27.73
2023-08-21T21:19:18.430Z,27.08
2023-08-21T21:24:21.970Z,27.06
2023-08-21T21:29:26.865Z,26.74
2023-08-21T21:34:30.410Z,27.14
2023-08-21T21:39:34.171Z,27.16
2023-08-21T21:44:38.853Z,27.25
2023-08-21T21:49:42.132Z,26.59
2023-08-21T21:54:45.398Z,26.29
2023-08-21T21:59:50.136Z,26.38
2023-08-21T22:04:53.752Z,26.28
2023-08-21T22:09:57.547Z,25.97
2023-08-21T22:15:02.152Z,26.41
2023-08-21T22:20:06.750Z,26.12
2023-08-21T22:25:10.484Z,25.83
2023-08-21T22:30:15.779Z,25.17
2023-08-21T22:35:19.315Z,25.22
2023-08-21T22:40:26.035Z,25.30
2023-08-21T22:45:30.557Z,25.32
2023-08-21T22:50:33.785Z,25.36
2023-08-21T22:55:37.762Z,25.71
2023-08-21T23:00:42.968Z,25.61
2023-08-21T23:05:53.738Z,24.78
2023-08-21T23:10:57.017Z,24.76
2023-08-21T23:16:02.040Z,24.83
2023-08-21T23:21:06.343Z,24.75
2023-08-21T23:26:09.740Z,24.71
2023-08-21T23:31:14.425Z,24.67
2023-08-21T23:36:17.659Z,24.38
2023-08-21T23:41:21.402Z,24.51
2023-08-21T23:46:26.266Z,24.30
2023-08-21T23:51:29.658Z,24.29
2023-08-21T23:56:33.054Z,24.67
